Portada
METAR-TAF:

METAR-TAF

Aeroports :

Ulan Bator, Mongòlia

latitud: 47-55N, longitud: 106-52E, altitud: 1306 m

Observació

L'informe es va fer fa 17 minuts, a les 14:30 UTC
Vent 4 kt amb direcció variable
Temperatura 14°C
Humitat 26%
Pressió 1007 hPa
Visibilitat 10 km o més
Núvols disperses a una alçada de 10000 ft

METAR: ZMUB 211430Z VRB02MPS 9999 SCT100 14/M05 Q1007 NOSIG RMK QFE648.8 27 NT

Hora: 23:47 (14:47 UTC)

Pronòstic

L'informe es va fer fa 4 hores i 7 minuts, a les 10:40 UTC
Pronòstic vàlid del 21 a les 12 UTC al 22 a les 18 UTC
Vent 4 kt amb direcció variable
Visibilitat 10 km o més
Núvols disperses a una alçada de 10000 ft
Evolucionant progressivament
l' 22 a les 04 UTC al 22 a les 06 UTC
Vent 12 kt del Oest
Núvols disperses a una alçada de 3300 ft
Evolucionant progressivament
l' 22 a les 11 UTC al 22 a les 13 UTC
Vent 4 kt amb direcció variable

TAF: ZMUB 211040Z 2112/2218 VRB02MPS 9999 SCT100 TN03/2123Z TX30/2207Z BECMG 2204/2206 28006MPS SCT033 BECMG 2211/2213 VRB02MPS

Observacions i pronòstics meteorològics de més de 4000 aeroports (METAR i TAF).

Les estacions disponibles són els punts grocs i vermells al mapa.

Posi el ratolí al punt desitjat per veure el nom de l'estació.

Feu clic per veure les observacions i els pronòstics meteorològics.

Per canviar el mapa: feu clic els botons verds amb una creu de color negre per apropar; al botó verd amb un guió per allunyar la imatge; o en les fletxes verdes per a mapes adjacents.


METAR-TAF: